createdAt,value
2019-03-19T00:00:17.815Z,81.16
2019-03-19T00:03:25.838Z,80.55
2019-03-19T00:06:32.146Z,80.52
2019-03-19T00:09:39.403Z,81.85
2019-03-19T00:12:45.774Z,81.00
2019-03-19T00:15:52.069Z,80.61
2019-03-19T00:18:58.707Z,80.72
2019-03-19T00:22:05.185Z,80.81
2019-03-19T00:25:13.205Z,80.88
2019-03-19T00:28:20.030Z,80.79
2019-03-19T00:31:26.485Z,80.60
2019-03-19T00:34:33.403Z,80.69
2019-03-19T00:37:39.830Z,80.71
2019-03-19T00:40:46.216Z,80.79
2019-03-19T00:43:52.573Z,81.06
2019-03-19T00:46:58.815Z,81.49
2019-03-19T00:50:05.769Z,80.35
2019-03-19T00:53:12.263Z,80.91
2019-03-19T00:56:18.813Z,80.55
2019-03-19T00:59:25.138Z,81.22
2019-03-19T01:02:31.547Z,80.86
2019-03-19T01:05:38.002Z,81.26
2019-03-19T01:08:44.576Z,80.81
2019-03-19T01:11:51.018Z,80.74
2019-03-19T01:14:57.453Z,80.79
2019-03-19T01:18:03.823Z,81.18
2019-03-19T01:21:10.176Z,80.96
2019-03-19T01:24:18.023Z,80.39
2019-03-19T01:27:24.730Z,80.31
2019-03-19T01:30:31.253Z,80.23
2019-03-19T01:33:37.617Z,80.72
2019-03-19T01:36:43.914Z,80.38
2019-03-19T01:39:50.280Z,80.28
2019-03-19T01:42:56.622Z,80.13
2019-03-19T01:46:03.095Z,80.95
2019-03-19T01:49:09.545Z,80.04
2019-03-19T01:52:18.235Z,80.23
2019-03-19T01:55:25.616Z,80.17
2019-03-19T01:58:32.095Z,79.86
2019-03-19T02:01:38.469Z,79.87
2019-03-19T02:04:45.275Z,80.80
2019-03-19T02:07:51.878Z,80.21
2019-03-19T02:10:58.296Z,79.74
2019-03-19T02:14:04.638Z,80.77
2019-03-19T02:17:12.731Z,80.47
2019-03-19T02:20:19.280Z,80.31
2019-03-19T02:23:25.738Z,81.04
2019-03-19T02:26:32.389Z,80.89
2019-03-19T02:29:39.552Z,81.00
2019-03-19T02:32:45.968Z,80.42
2019-03-19T02:35:52.432Z,80.77
2019-03-19T02:38:58.772Z,80.90
2019-03-19T02:42:05.217Z,80.29
2019-03-19T02:45:12.822Z,80.13
2019-03-19T02:48:19.359Z,79.92
2019-03-19T02:51:25.760Z,80.34
2019-03-19T02:54:32.297Z,79.91
2019-03-19T02:57:38.628Z,80.50
2019-03-19T03:00:45.071Z,81.10
2019-03-19T03:03:51.422Z,79.23
2019-03-19T03:06:58.207Z,79.17
2019-03-19T03:10:05.106Z,79.36
2019-03-19T03:13:13.113Z,80.34
2019-03-19T03:16:19.374Z,78.94
2019-03-19T03:19:25.727Z,78.63
2019-03-19T03:22:33.737Z,78.41
2019-03-19T03:25:43.220Z,80.10
2019-03-19T03:28:50.250Z,78.53
2019-03-19T03:31:56.922Z,77.81
2019-03-19T03:35:03.381Z,78.09
2019-03-19T03:38:09.764Z,77.86
2019-03-19T03:41:16.207Z,77.69
2019-03-19T03:44:22.602Z,76.96
2019-03-19T03:47:28.889Z,76.83
2019-03-19T03:50:35.434Z,77.25
2019-03-19T03:53:41.772Z,77.33
2019-03-19T03:57:01.318Z,76.67
2019-03-19T03:59:56.373Z,76.74
2019-03-19T04:03:02.817Z,76.74
2019-03-19T04:06:09.578Z,77.60
2019-03-19T04:09:16.111Z,77.54
2019-03-19T04:12:22.634Z,77.35
2019-03-19T04:15:28.994Z,78.16
2019-03-19T04:18:35.327Z,77.22
2019-03-19T04:21:41.835Z,76.12
2019-03-19T04:24:48.306Z,76.75
2019-03-19T04:27:54.690Z,77.06
2019-03-19T04:31:01.405Z,77.08
2019-03-19T04:34:08.034Z,75.81
2019-03-19T04:37:14.520Z,77.29
2019-03-19T04:40:21.050Z,75.77
2019-03-19T04:43:27.439Z,76.16
2019-03-19T04:46:33.842Z,77.02
2019-03-19T04:49:40.480Z,76.53
2019-03-19T04:52:46.815Z,76.08
2019-03-19T04:55:53.158Z,77.40
2019-03-19T04:58:59.958Z,74.86
2019-03-19T05:02:06.352Z,75.07
2019-03-19T05:05:14.423Z,75.13
2019-03-19T05:08:22.444Z,75.54
2019-03-19T05:11:28.721Z,75.52
2019-03-19T05:14:35.295Z,75.33
2019-03-19T05:17:41.980Z,74.15
2019-03-19T05:20:48.402Z,74.68
2019-03-19T05:23:54.723Z,74.31
2019-03-19T05:27:01.091Z,74.53
2019-03-19T05:30:08.391Z,74.68
2019-03-19T05:33:14.883Z,74.21
2019-03-19T05:36:21.477Z,75.56
2019-03-19T05:39:27.943Z,73.88
2019-03-19T05:42:34.441Z,74.97
2019-03-19T05:45:41.081Z,74.26
2019-03-19T05:48:47.454Z,74.42
2019-03-19T05:51:53.821Z,73.65
2019-03-19T05:55:00.422Z,73.42
2019-03-19T05:58:06.884Z,73.44
2019-03-19T06:01:13.847Z,72.65
2019-03-19T06:04:20.260Z,73.36
2019-03-19T06:07:26.768Z,73.84
2019-03-19T06:10:34.198Z,72.73
2019-03-19T06:13:40.786Z,72.73
2019-03-19T06:16:47.199Z,72.01
2019-03-19T06:19:53.861Z,72.90
2019-03-19T06:23:00.107Z,72.67
2019-03-19T06:26:06.472Z,73.15
2019-03-19T06:29:12.965Z,74.06
2019-03-19T06:32:19.543Z,75.14
2019-03-19T06:35:26.312Z,72.38
2019-03-19T06:38:35.325Z,72.15
2019-03-19T06:41:41.747Z,72.56
2019-03-19T06:44:48.222Z,72.60
2019-03-19T06:47:54.522Z,73.11
2019-03-19T06:51:00.953Z,73.70
2019-03-19T06:54:07.275Z,72.30
2019-03-19T06:57:15.482Z,73.26
2019-03-19T07:00:22.291Z,72.03
2019-03-19T07:03:28.689Z,72.38
2019-03-19T07:06:35.153Z,73.18
2019-03-19T07:09:41.526Z,72.10
2019-03-19T07:12:47.872Z,72.63
2019-03-19T07:15:54.423Z,72.59
2019-03-19T07:19:01.898Z,72.27
2019-03-19T07:22:08.307Z,74.80
2019-03-19T07:25:14.789Z,71.76
2019-03-19T07:28:22.224Z,72.18
2019-03-19T07:31:31.112Z,73.08
2019-03-19T07:34:37.313Z,72.41
2019-03-19T07:37:45.321Z,72.36
2019-03-19T07:40:51.939Z,72.67
2019-03-19T07:43:58.353Z,72.24
2019-03-19T07:47:04.836Z,72.34
2019-03-19T07:50:12.664Z,71.65
2019-03-19T07:53:18.926Z,71.35
2019-03-19T07:56:25.414Z,72.39
2019-03-19T07:59:31.771Z,71.02
2019-03-19T08:02:38.127Z,71.16
2019-03-19T08:05:44.495Z,71.18
2019-03-19T08:08:50.834Z,71.26
2019-03-19T08:11:57.359Z,71.28
2019-03-19T08:15:03.700Z,71.58
2019-03-19T08:18:10.093Z,71.22
2019-03-19T08:21:16.522Z,72.66
2019-03-19T08:24:22.963Z,69.97
2019-03-19T08:27:29.404Z,70.85
2019-03-19T08:30:35.835Z,71.25
2019-03-19T08:33:42.236Z,71.07
2019-03-19T08:36:48.614Z,70.81
2019-03-19T08:39:56.807Z,70.86
2019-03-19T08:43:03.639Z,69.46
2019-03-19T08:46:10.005Z,70.45
2019-03-19T08:49:17.993Z,69.58
2019-03-19T08:52:24.389Z,70.50
2019-03-19T08:55:30.827Z,70.71
2019-03-19T08:58:37.305Z,70.02
2019-03-19T09:01:43.685Z,68.97
2019-03-19T09:04:50.116Z,69.60
2019-03-19T09:07:57.990Z,70.95
2019-03-19T09:11:04.567Z,68.91
2019-03-19T09:14:12.495Z,68.49
2019-03-19T09:17:19.542Z,68.63
2019-03-19T09:20:26.082Z,67.90
2019-03-19T09:23:33.293Z,67.98
2019-03-19T09:26:39.869Z,67.73
2019-03-19T09:29:46.286Z,67.66
2019-03-19T09:32:52.729Z,67.66
2019-03-19T09:35:59.087Z,66.51
2019-03-19T09:39:08.329Z,65.80
2019-03-19T09:42:15.054Z,64.88
2019-03-19T09:45:21.800Z,65.41
2019-03-19T09:48:28.381Z,65.63
2019-03-19T09:51:34.795Z,63.51
2019-03-19T09:54:43.922Z,62.54
2019-03-19T09:57:50.269Z,61.15
2019-03-19T10:00:56.772Z,61.62
2019-03-19T10:04:03.104Z,60.37
2019-03-19T10:07:09.570Z,59.67
2019-03-19T10:10:16.229Z,58.38
2019-03-19T10:13:22.638Z,58.84
2019-03-19T10:16:29.016Z,60.51
2019-03-19T10:19:36.329Z,56.76
2019-03-19T10:22:42.769Z,58.87
2019-03-19T10:25:49.351Z,56.92
2019-03-19T10:28:55.815Z,57.70
2019-03-19T10:32:02.181Z,56.78
2019-03-19T10:35:10.125Z,54.91
2019-03-19T10:38:16.490Z,55.80
2019-03-19T10:41:23.002Z,55.37
2019-03-19T10:44:31.875Z,55.37
2019-03-19T10:47:43.456Z,55.49
2019-03-19T10:50:51.353Z,53.15
2019-03-19T10:53:57.797Z,52.28
2019-03-19T10:57:04.130Z,52.65
2019-03-19T11:00:16.963Z,52.16
2019-03-19T11:03:23.594Z,53.72
2019-03-19T11:06:29.972Z,51.23
2019-03-19T11:09:36.238Z,52.82
2019-03-19T11:12:42.634Z,53.10
2019-03-19T11:15:49.237Z,53.42
2019-03-19T11:18:56.572Z,53.12
2019-03-19T11:22:02.932Z,52.54
2019-03-19T11:25:13.272Z,51.04
2019-03-19T11:28:19.647Z,49.72
2019-03-19T11:31:26.240Z,47.11
2019-03-19T11:34:32.663Z,47.55
2019-03-19T11:37:41.487Z,48.40
2019-03-19T11:40:47.855Z,49.47
2019-03-19T11:43:55.524Z,43.88
2019-03-19T11:47:03.815Z,43.23
2019-03-19T11:50:19.614Z,42.43
2019-03-19T11:53:29.608Z,44.27
2019-03-19T11:56:38.006Z,41.21
2019-03-19T11:59:44.445Z,40.70
2019-03-19T12:02:50.830Z,43.57
2019-03-19T12:05:57.444Z,42.23
2019-03-19T12:09:08.189Z,44.53
2019-03-19T12:12:14.638Z,42.73
2019-03-19T12:15:23.557Z,43.86
2019-03-19T12:18:30.168Z,43.92
2019-03-19T12:21:36.622Z,45.35
2019-03-19T12:24:46.743Z,41.32
2019-03-19T12:27:56.250Z,40.48
2019-03-19T12:31:02.602Z,40.85
2019-03-19T12:34:11.713Z,41.24
2019-03-19T12:37:18.180Z,43.77
2019-03-19T12:40:35.973Z,40.45
2019-03-19T12:43:35.015Z,42.21
2019-03-19T12:46:43.144Z,39.22
2019-03-19T12:49:49.729Z,40.39
2019-03-19T12:52:59.639Z,42.19
2019-03-19T12:56:06.933Z,38.26
2019-03-19T12:59:20.420Z,39.71
2019-03-19T13:02:24.528Z,42.93
2019-03-19T13:05:30.970Z,42.33
2019-03-19T13:08:37.461Z,42.40
2019-03-19T13:11:43.911Z,40.79
2019-03-19T13:14:50.381Z,41.76
2019-03-19T13:17:56.776Z,41.77
2019-03-19T13:21:03.109Z,43.84
2019-03-19T13:24:10.538Z,46.38
2019-03-19T13:27:16.982Z,45.63
2019-03-19T13:30:23.766Z,45.63
2019-03-19T13:33:30.082Z,47.57
2019-03-19T13:36:36.427Z,45.84
2019-03-19T13:39:44.802Z,47.19
2019-03-19T13:42:51.353Z,47.19
2019-03-19T13:45:59.504Z,47.23
2019-03-19T13:49:09.677Z,49.75
2019-03-19T13:52:16.361Z,48.03
2019-03-19T13:55:23.084Z,48.35
2019-03-19T13:58:30.721Z,49.01
2019-03-19T14:01:37.729Z,48.11
2019-03-19T14:04:47.662Z,48.14
2019-03-19T14:07:55.420Z,48.98
2019-03-19T14:11:01.868Z,47.23
2019-03-19T14:14:10.784Z,48.20
2019-03-19T14:17:17.320Z,48.05
2019-03-19T14:20:23.856Z,49.33
2019-03-19T14:23:30.339Z,48.41
2019-03-19T14:26:37.183Z,48.31
2019-03-19T14:29:45.029Z,49.76
2019-03-19T14:32:51.374Z,47.92
2019-03-19T14:35:58.096Z,49.86
2019-03-19T14:39:09.174Z,47.88
2019-03-19T14:42:15.613Z,49.27
2019-03-19T14:45:23.734Z,48.26
2019-03-19T14:48:30.182Z,48.20
2019-03-19T14:51:38.098Z,51.36
2019-03-19T14:54:44.702Z,50.73
2019-03-19T14:57:51.495Z,48.33
2019-03-19T15:00:57.932Z,46.51
2019-03-19T15:04:04.419Z,49.26
2019-03-19T15:07:10.804Z,48.38
2019-03-19T15:10:17.500Z,50.96
2019-03-19T15:13:23.991Z,50.50
2019-03-19T15:16:30.425Z,52.35
2019-03-19T15:19:36.766Z,48.85
2019-03-19T15:22:43.306Z,50.03
2019-03-19T15:25:49.866Z,50.76
2019-03-19T15:28:56.345Z,51.17
2019-03-19T15:32:03.643Z,51.74
2019-03-19T15:35:11.334Z,51.56
2019-03-19T15:38:17.823Z,53.18
2019-03-19T15:41:24.334Z,51.04
2019-03-19T15:44:30.731Z,49.86
2019-03-19T15:47:37.198Z,49.88
2019-03-19T15:50:43.645Z,52.67
2019-03-19T15:53:50.215Z,52.53
2019-03-19T15:56:58.303Z,50.82
2019-03-19T16:00:08.660Z,50.70
2019-03-19T16:03:15.355Z,53.10
2019-03-19T16:06:21.751Z,54.32
2019-03-19T16:09:28.311Z,51.35
2019-03-19T16:12:34.725Z,51.98
2019-03-19T16:15:42.881Z,53.66
2019-03-19T16:18:49.460Z,53.59
2019-03-19T16:21:57.548Z,53.27
2019-03-19T16:25:03.937Z,53.22
2019-03-19T16:28:13.326Z,52.86
2019-03-19T16:31:19.730Z,50.57
2019-03-19T16:34:26.142Z,53.35
2019-03-19T16:37:34.865Z,53.18
2019-03-19T16:40:42.472Z,54.11
2019-03-19T16:43:50.399Z,53.09
2019-03-19T16:47:01.066Z,54.78
2019-03-19T16:50:08.159Z,52.78
2019-03-19T16:53:14.725Z,53.74
2019-03-19T16:56:24.868Z,52.86
2019-03-19T16:59:31.753Z,54.66
2019-03-19T17:02:38.571Z,53.72
2019-03-19T17:05:45.164Z,57.89
2019-03-19T17:08:51.773Z,54.46
2019-03-19T17:11:59.698Z,54.56
2019-03-19T17:15:09.765Z,56.50
2019-03-19T17:18:16.317Z,55.12
2019-03-19T17:21:23.670Z,56.25
2019-03-19T17:24:30.104Z,55.30
2019-03-19T17:27:39.347Z,56.25
2019-03-19T17:30:45.797Z,56.57
2019-03-19T17:33:52.297Z,57.72
2019-03-19T17:36:58.671Z,57.46
2019-03-19T17:40:06.308Z,56.91
2019-03-19T17:43:12.739Z,58.16
2019-03-19T17:46:21.149Z,58.13
2019-03-19T17:49:27.720Z,58.66
2019-03-19T17:52:34.216Z,58.97
2019-03-19T17:55:40.772Z,58.56
2019-03-19T17:58:47.195Z,58.88
2019-03-19T18:01:53.978Z,59.38
2019-03-19T18:05:00.567Z,59.38
2019-03-19T18:08:07.151Z,59.84
2019-03-19T18:11:14.425Z,59.77
2019-03-19T18:14:20.801Z,59.94
2019-03-19T18:17:27.350Z,59.35
2019-03-19T18:20:35.490Z,58.80
2019-03-19T18:23:41.901Z,60.09
2019-03-19T18:26:48.248Z,59.32
2019-03-19T18:29:55.631Z,60.15
2019-03-19T18:33:02.046Z,60.54
2019-03-19T18:36:08.461Z,60.43
2019-03-19T18:39:14.956Z,60.26
2019-03-19T18:42:24.767Z,60.60
2019-03-19T18:45:34.442Z,60.75
2019-03-19T18:48:41.125Z,61.01
2019-03-19T18:51:47.558Z,60.95
2019-03-19T18:54:54.100Z,61.35
2019-03-19T18:58:00.513Z,61.14
2019-03-19T19:01:08.222Z,61.51
2019-03-19T19:04:17.472Z,61.37
2019-03-19T19:07:25.425Z,61.42
2019-03-19T19:10:31.935Z,61.74
2019-03-19T19:13:38.331Z,62.14
2019-03-19T19:16:44.927Z,61.63
2019-03-19T19:19:51.324Z,61.85
2019-03-19T19:22:58.361Z,61.85
2019-03-19T19:26:04.879Z,62.09
2019-03-19T19:29:12.784Z,62.02
2019-03-19T19:32:19.448Z,62.23
2019-03-19T19:35:25.899Z,62.04
2019-03-19T19:38:32.392Z,62.67
2019-03-19T19:41:38.841Z,62.61
2019-03-19T19:44:45.459Z,62.48
2019-03-19T19:47:51.945Z,63.18
2019-03-19T19:50:58.493Z,62.90
2019-03-19T19:54:04.865Z,62.98
2019-03-19T19:57:11.355Z,63.81
2019-03-19T20:00:17.860Z,63.81
2019-03-19T20:03:24.765Z,63.54
2019-03-19T20:06:31.624Z,64.10
2019-03-19T20:09:38.362Z,63.54
2019-03-19T20:12:44.846Z,63.26
2019-03-19T20:15:52.678Z,64.42
2019-03-19T20:18:59.009Z,64.07
2019-03-19T20:22:07.420Z,66.09
2019-03-19T20:25:13.953Z,66.41
2019-03-19T20:28:20.503Z,66.06
2019-03-19T20:31:26.859Z,66.20
2019-03-19T20:34:33.487Z,66.72
2019-03-19T20:37:41.463Z,66.98
2019-03-19T20:40:47.985Z,66.01
2019-03-19T20:43:54.361Z,66.75
2019-03-19T20:47:00.678Z,67.62
2019-03-19T20:50:12.718Z,68.02
2019-03-19T20:53:19.974Z,68.75
2019-03-19T20:56:26.854Z,68.46
2019-03-19T20:59:43.304Z,67.87
2019-03-19T21:02:52.006Z,68.42
2019-03-19T21:06:02.196Z,68.38
2019-03-19T21:09:12.884Z,67.96
2019-03-19T21:12:22.740Z,69.28
2019-03-19T21:15:32.420Z,69.15
2019-03-19T21:18:38.859Z,68.67
2019-03-19T21:21:46.711Z,68.38
2019-03-19T21:24:54.787Z,69.04
2019-03-19T21:28:01.158Z,70.65
2019-03-19T21:31:08.685Z,70.26
2019-03-19T21:34:15.377Z,69.69
2019-03-19T21:37:23.700Z,70.30
2019-03-19T21:40:31.600Z,71.61
2019-03-19T21:43:38.001Z,71.89
2019-03-19T21:46:44.439Z,71.18
2019-03-19T21:49:51.114Z,71.71
2019-03-19T21:52:59.325Z,69.39
2019-03-19T21:56:07.405Z,69.72
2019-03-19T21:59:13.888Z,68.09
2019-03-19T22:02:20.455Z,68.60
2019-03-19T22:05:29.511Z,69.14
2019-03-19T22:08:37.864Z,69.19
2019-03-19T22:11:45.008Z,67.29
2019-03-19T22:14:52.727Z,67.84
2019-03-19T22:17:59.188Z,67.31
2019-03-19T22:21:05.587Z,67.91
2019-03-19T22:24:12.326Z,69.47
2019-03-19T22:27:19.280Z,68.77
2019-03-19T22:30:25.810Z,69.03
2019-03-19T22:33:33.518Z,69.61
2019-03-19T22:36:41.250Z,69.40
2019-03-19T22:39:47.709Z,69.46
2019-03-19T22:42:55.599Z,69.63
2019-03-19T22:46:02.117Z,69.65
2019-03-19T22:49:08.491Z,69.97
2019-03-19T22:52:14.998Z,69.51
2019-03-19T22:55:29.048Z,70.06
2019-03-19T22:58:30.936Z,71.15
2019-03-19T23:01:37.350Z,70.59
2019-03-19T23:04:44.152Z,71.09
2019-03-19T23:07:50.576Z,71.61
2019-03-19T23:10:57.094Z,70.58
2019-03-19T23:14:03.859Z,70.06
2019-03-19T23:17:11.253Z,69.71
2019-03-19T23:20:19.083Z,69.12
2019-03-19T23:23:26.528Z,69.02
2019-03-19T23:26:32.887Z,69.06
2019-03-19T23:29:39.528Z,69.48
2019-03-19T23:32:46.002Z,69.31
2019-03-19T23:35:52.524Z,70.60
2019-03-19T23:39:00.458Z,69.17
2019-03-19T23:42:10.025Z,68.95
2019-03-19T23:45:16.600Z,69.89
2019-03-19T23:48:24.769Z,69.41
2019-03-19T23:51:31.325Z,69.07
2019-03-19T23:54:37.934Z,70.22
2019-03-19T23:57:45.912Z,70.78
